createdAt,value
2023-02-18T00:01:12.673Z,72.66
2023-02-18T00:04:39.997Z,72.70
2023-02-18T00:08:07.369Z,72.69
2023-02-18T00:11:37.178Z,72.92
2023-02-18T00:15:02.697Z,72.35
2023-02-18T00:18:30.109Z,72.10
2023-02-18T00:21:57.110Z,72.33
2023-02-18T00:25:24.252Z,72.99
2023-02-18T00:28:53.106Z,72.81
2023-02-18T00:32:20.481Z,72.72
2023-02-18T00:35:47.676Z,72.88
2023-02-18T00:39:16.071Z,72.98
2023-02-18T00:42:43.189Z,72.47
2023-02-18T00:46:10.878Z,72.64
2023-02-18T00:49:38.692Z,72.22
2023-02-18T00:53:05.890Z,72.43
2023-02-18T00:56:33.008Z,73.11
2023-02-18T01:00:00.203Z,73.22
2023-02-18T01:03:27.773Z,73.43
2023-02-18T01:06:55.001Z,73.48
2023-02-18T01:10:22.556Z,73.68
2023-02-18T01:13:52.278Z,73.83
2023-02-18T01:17:19.756Z,73.90
2023-02-18T01:20:48.076Z,74.31
2023-02-18T01:24:16.026Z,74.32
2023-02-18T01:27:43.302Z,74.57
2023-02-18T01:31:14.106Z,74.76
2023-02-18T01:34:41.412Z,74.14
2023-02-18T01:38:09.574Z,74.45
2023-02-18T01:41:36.797Z,74.53
2023-02-18T01:45:34.535Z,74.75
2023-02-18T01:49:03.648Z,74.83
2023-02-18T01:52:34.071Z,74.39
2023-02-18T01:56:06.735Z,74.82
2023-02-18T01:59:39.107Z,74.56
2023-02-18T02:03:06.579Z,74.69
2023-02-18T02:06:34.515Z,75.00
2023-02-18T02:10:03.212Z,75.11
2023-02-18T02:13:43.068Z,75.36
2023-02-18T02:17:13.028Z,75.64
2023-02-18T02:21:20.795Z,76.18
2023-02-18T02:25:08.727Z,76.07
2023-02-18T02:29:09.423Z,76.47
2023-02-18T02:33:12.679Z,76.28
2023-02-18T02:36:49.106Z,76.43
2023-02-18T02:40:27.678Z,75.48
2023-02-18T02:43:58.320Z,75.37
2023-02-18T02:47:44.623Z,75.50
2023-02-18T02:51:16.972Z,75.29
2023-02-18T02:54:44.227Z,75.88
2023-02-18T02:58:18.610Z,75.11
2023-02-18T03:02:00.501Z,75.34
2023-02-18T03:05:40.352Z,75.19
2023-02-18T03:09:17.983Z,75.40
2023-02-18T03:12:54.722Z,75.22
2023-02-18T03:16:34.517Z,75.08
2023-02-18T03:20:10.546Z,74.59
2023-02-18T03:23:49.298Z,74.79
2023-02-18T03:27:21.357Z,74.89
2023-02-18T03:30:52.883Z,74.81
2023-02-18T03:34:26.827Z,74.22
2023-02-18T03:38:01.069Z,74.77
2023-02-18T03:41:30.885Z,74.88
2023-02-18T03:44:59.274Z,74.66
2023-02-18T03:48:27.085Z,74.78
2023-02-18T03:51:54.366Z,74.43
2023-02-18T03:55:21.615Z,74.51
2023-02-18T03:58:51.683Z,74.59
2023-02-18T04:02:19.045Z,74.23
2023-02-18T04:05:46.501Z,74.44
2023-02-18T04:09:13.895Z,74.49
2023-02-18T04:12:41.209Z,74.81
2023-02-18T04:16:09.873Z,74.82
2023-02-18T04:19:37.419Z,74.50
2023-02-18T04:23:04.745Z,74.14
2023-02-18T04:26:32.272Z,74.46
2023-02-18T04:29:59.421Z,74.29
2023-02-18T04:33:26.506Z,74.20
2023-02-18T04:36:53.771Z,74.17
2023-02-18T04:40:21.482Z,74.45
2023-02-18T04:43:48.627Z,74.97
2023-02-18T04:47:16.478Z,74.96
2023-02-18T04:50:44.996Z,75.25
2023-02-18T04:54:12.120Z,75.20
2023-02-18T04:57:39.382Z,75.12
2023-02-18T05:01:07.220Z,75.41
2023-02-18T05:04:34.926Z,75.46
2023-02-18T05:08:02.496Z,75.68
2023-02-18T05:11:29.659Z,75.41
2023-02-18T05:14:56.843Z,75.13
2023-02-18T05:18:24.097Z,75.53
2023-02-18T05:21:51.430Z,75.85
2023-02-18T05:25:19.204Z,75.65
2023-02-18T05:28:46.508Z,75.58
2023-02-18T05:32:13.826Z,75.90
2023-02-18T05:35:41.599Z,75.90
2023-02-18T05:39:08.796Z,76.00
2023-02-18T05:42:36.116Z,75.99
2023-02-18T05:46:03.396Z,76.19
2023-02-18T05:49:31.406Z,76.30
2023-02-18T05:52:58.509Z,76.44
2023-02-18T05:56:25.679Z,77.00
2023-02-18T05:59:53.315Z,77.06
2023-02-18T06:03:20.599Z,77.52
2023-02-18T06:06:48.294Z,77.94
2023-02-18T06:10:15.724Z,78.11
2023-02-18T06:13:43.090Z,78.08
2023-02-18T06:17:10.475Z,78.28
2023-02-18T06:20:37.397Z,78.37
2023-02-18T06:24:05.144Z,78.31
2023-02-18T06:27:32.437Z,78.82
2023-02-18T06:30:59.678Z,78.63
2023-02-18T06:34:27.898Z,78.62
2023-02-18T06:37:55.044Z,78.92
2023-02-18T06:41:22.157Z,78.84
2023-02-18T06:44:49.614Z,78.57
2023-02-18T06:48:18.147Z,78.68
2023-02-18T06:51:45.606Z,78.40
2023-02-18T06:55:14.020Z,78.08
2023-02-18T06:58:41.762Z,78.26
2023-02-18T07:02:08.908Z,78.00
2023-02-18T07:05:36.487Z,77.85
2023-02-18T07:09:03.628Z,77.30
2023-02-18T07:12:31.016Z,77.58
2023-02-18T07:15:58.147Z,77.67
2023-02-18T07:19:25.766Z,77.52
2023-02-18T07:22:53.943Z,77.41
2023-02-18T07:26:21.274Z,77.08
2023-02-18T07:29:49.159Z,76.91
2023-02-18T07:33:16.457Z,76.98
2023-02-18T07:36:43.785Z,76.50
2023-02-18T07:40:13.878Z,75.45
2023-02-18T07:43:41.292Z,76.01
2023-02-18T07:47:14.954Z,75.83
2023-02-18T07:50:44.428Z,75.51
2023-02-18T07:54:11.712Z,75.47
2023-02-18T07:57:57.482Z,75.19
2023-02-18T08:01:27.625Z,74.24
2023-02-18T08:04:55.130Z,73.79
2023-02-18T08:08:24.187Z,72.98
2023-02-18T08:11:51.756Z,73.23
2023-02-18T08:15:19.444Z,73.30
2023-02-18T08:18:48.048Z,72.54
2023-02-18T08:22:15.383Z,72.47
2023-02-18T08:25:46.239Z,72.69
2023-02-18T08:29:13.453Z,72.24
2023-02-18T08:32:40.710Z,72.41
2023-02-18T08:36:11.301Z,72.51
2023-02-18T08:39:40.143Z,71.45
2023-02-18T08:43:07.647Z,71.45
2023-02-18T08:46:35.541Z,71.91
2023-02-18T08:50:04.600Z,71.33
2023-02-18T08:53:31.861Z,71.46
2023-02-18T08:56:59.119Z,70.40
2023-02-18T09:00:27.198Z,69.97
2023-02-18T09:03:54.529Z,69.04
2023-02-18T09:07:22.236Z,68.92
2023-02-18T09:10:49.463Z,67.69
2023-02-18T09:14:16.878Z,67.69
2023-02-18T09:17:44.433Z,68.19
2023-02-18T09:21:13.582Z,67.75
2023-02-18T09:24:42.207Z,66.75
2023-02-18T09:28:09.596Z,67.52
2023-02-18T09:31:38.212Z,66.58
2023-02-18T09:35:06.018Z,66.51
2023-02-18T09:38:33.242Z,66.53
2023-02-18T09:42:03.979Z,64.79
2023-02-18T09:45:31.618Z,65.41
2023-02-18T09:48:59.517Z,65.71
2023-02-18T09:52:29.878Z,65.53
2023-02-18T09:55:58.568Z,64.34
2023-02-18T09:59:28.543Z,63.90
2023-02-18T10:02:58.385Z,62.04
2023-02-18T10:06:30.889Z,61.86
2023-02-18T10:10:03.645Z,61.89
2023-02-18T10:13:33.236Z,61.15
2023-02-18T10:17:01.586Z,59.75
2023-02-18T10:20:31.856Z,59.99
2023-02-18T10:24:05.134Z,59.65
2023-02-18T10:27:34.941Z,58.67
2023-02-18T10:31:09.859Z,58.90
2023-02-18T10:34:44.237Z,58.86
2023-02-18T10:38:19.840Z,58.62
2023-02-18T10:41:52.887Z,57.77
2023-02-18T10:45:30.121Z,57.67
2023-02-18T10:49:22.236Z,57.61
2023-02-18T10:52:53.691Z,57.82
2023-02-18T11:00:24.508Z,55.94
2023-02-18T11:04:04.852Z,56.49
2023-02-18T11:07:39.205Z,56.07
2023-02-18T11:11:17.343Z,56.05
2023-02-18T11:14:47.440Z,56.03
2023-02-18T11:18:31.805Z,56.64
2023-02-18T11:22:10.545Z,56.86
2023-02-18T11:25:40.366Z,57.51
2023-02-18T11:29:07.654Z,57.80
2023-02-18T11:32:38.243Z,58.33
2023-02-18T11:36:15.603Z,57.70
2023-02-18T11:39:47.920Z,58.50
2023-02-18T11:43:17.567Z,59.73
2023-02-18T11:46:57.023Z,60.24
2023-02-18T11:50:25.884Z,61.47
2023-02-18T11:54:05.353Z,62.29
2023-02-18T11:57:39.477Z,63.13
2023-02-18T12:01:14.349Z,64.24
2023-02-18T12:04:47.268Z,65.19
2023-02-18T12:08:20.601Z,65.31
2023-02-18T12:11:50.687Z,65.44
2023-02-18T12:15:25.541Z,66.14
2023-02-18T12:19:19.872Z,66.80
2023-02-18T12:22:58.240Z,67.63
2023-02-18T12:26:29.952Z,68.89
2023-02-18T12:30:28.254Z,69.92
2023-02-18T12:34:14.283Z,71.54
2023-02-18T12:38:02.355Z,71.81
2023-02-18T12:41:49.775Z,72.98
2023-02-18T12:45:45.115Z,74.05
2023-02-18T12:49:55.704Z,75.24
2023-02-18T12:53:54.484Z,75.26
2023-02-18T12:57:44.961Z,75.87
2023-02-18T13:01:30.429Z,75.88
2023-02-18T13:05:08.047Z,76.94
2023-02-18T13:08:48.505Z,78.14
2023-02-18T13:12:21.002Z,79.22
2023-02-18T13:15:54.150Z,79.15
2023-02-18T13:19:26.335Z,80.15
2023-02-18T13:22:53.824Z,80.80
2023-02-18T13:26:22.425Z,80.86
2023-02-18T13:29:57.386Z,81.89
2023-02-18T13:33:33.312Z,82.04
2023-02-18T13:37:09.806Z,81.55
2023-02-18T13:40:38.358Z,82.53
2023-02-18T13:44:11.192Z,82.02
2023-02-18T13:47:43.839Z,81.59
2023-02-18T13:51:11.853Z,81.47
2023-02-18T13:54:45.112Z,81.37
2023-02-18T13:58:20.702Z,81.11
2023-02-18T14:01:50.063Z,80.98
2023-02-18T14:05:25.769Z,80.59
2023-02-18T14:09:03.424Z,80.86
2023-02-18T14:12:40.322Z,80.93
2023-02-18T14:16:12.232Z,81.20
2023-02-18T14:19:39.450Z,81.22
2023-02-18T14:23:38.510Z,81.12
2023-02-18T14:27:18.024Z,81.31
2023-02-18T14:30:46.111Z,81.92
2023-02-18T14:34:57.783Z,81.57
2023-02-18T14:38:37.091Z,81.83
2023-02-18T14:42:10.373Z,81.83
2023-02-18T14:45:57.726Z,82.02
2023-02-18T14:49:40.546Z,82.23
2023-02-18T14:53:13.431Z,82.83
2023-02-18T14:56:51.975Z,82.80
2023-02-18T15:00:23.002Z,83.25
2023-02-18T15:03:52.556Z,83.45
2023-02-18T15:07:22.556Z,83.85
2023-02-18T15:10:54.049Z,84.13
2023-02-18T15:14:23.833Z,84.28
2023-02-18T15:17:50.488Z,84.40
2023-02-18T15:21:25.397Z,84.70
2023-02-18T15:24:57.148Z,85.07
2023-02-18T15:28:30.461Z,85.60
2023-02-18T15:31:59.402Z,85.95
2023-02-18T15:35:31.757Z,86.46
2023-02-18T15:39:00.769Z,87.00
2023-02-18T15:42:31.741Z,86.63
2023-02-18T15:46:00.394Z,87.12
2023-02-18T15:49:27.674Z,87.32
2023-02-18T15:52:57.804Z,87.21
2023-02-18T15:56:30.739Z,87.23
2023-02-18T16:00:04.574Z,87.66
2023-02-18T16:03:33.270Z,88.04
2023-02-18T16:07:18.843Z,87.90
2023-02-18T16:10:51.312Z,88.27
2023-02-18T16:14:34.067Z,88.84
2023-02-18T16:18:01.410Z,88.90
2023-02-18T16:21:34.529Z,89.62
2023-02-18T16:25:03.247Z,89.76
2023-02-18T16:28:35.770Z,89.69
2023-02-18T16:32:03.394Z,89.67
2023-02-18T16:35:48.462Z,89.42
2023-02-18T16:39:16.706Z,89.11
2023-02-18T16:42:43.831Z,89.25
2023-02-18T16:46:16.352Z,89.56
2023-02-18T16:49:46.122Z,89.68
2023-02-18T16:53:13.168Z,90.06
2023-02-18T16:56:41.274Z,90.37
2023-02-18T17:00:10.708Z,90.25
2023-02-18T17:03:37.941Z,90.13
2023-02-18T17:07:07.534Z,90.45
2023-02-18T17:10:36.098Z,90.32
2023-02-18T17:14:05.219Z,90.02
2023-02-18T17:17:32.769Z,90.01
2023-02-18T17:20:59.898Z,90.11
2023-02-18T17:24:27.063Z,90.11
2023-02-18T17:27:54.406Z,90.33
2023-02-18T17:31:26.062Z,90.62
2023-02-18T17:34:53.294Z,90.33
2023-02-18T17:38:21.359Z,90.15
2023-02-18T17:41:48.442Z,90.26
2023-02-18T17:45:24.477Z,90.27
2023-02-18T17:48:51.738Z,90.29
2023-02-18T17:52:33.228Z,90.44
2023-02-18T17:56:00.496Z,90.40
2023-02-18T17:59:29.137Z,90.46
2023-02-18T18:02:56.785Z,90.49
2023-02-18T18:06:24.235Z,90.81
2023-02-18T18:09:51.470Z,91.09
2023-02-18T18:13:23.733Z,90.69
2023-02-18T18:16:51.043Z,90.85
2023-02-18T18:20:18.719Z,90.92
2023-02-18T18:23:45.824Z,91.08
2023-02-18T18:27:13.752Z,91.31
2023-02-18T18:30:43.258Z,91.24
2023-02-18T18:34:12.605Z,91.13
2023-02-18T18:37:39.805Z,91.24
2023-02-18T18:41:07.641Z,91.21
2023-02-18T18:44:35.045Z,91.63
2023-02-18T18:48:02.311Z,91.65
2023-02-18T18:51:32.815Z,91.50
2023-02-18T18:54:59.912Z,91.40
2023-02-18T18:58:27.590Z,91.78
2023-02-18T19:01:55.813Z,91.64
2023-02-18T19:05:30.227Z,92.09
2023-02-18T19:08:57.338Z,93.30
2023-02-18T19:12:24.446Z,92.43
2023-02-18T19:15:54.827Z,92.66
2023-02-18T19:19:24.765Z,92.48
2023-02-18T19:22:52.388Z,92.45
2023-02-18T19:26:20.798Z,92.18
2023-02-18T19:29:50.403Z,92.09
2023-02-18T19:33:18.176Z,91.96
2023-02-18T19:36:46.811Z,91.67
2023-02-18T19:40:18.030Z,91.80
2023-02-18T19:43:46.707Z,91.82
2023-02-18T19:47:14.114Z,91.82
2023-02-18T19:50:43.138Z,91.94
2023-02-18T19:54:10.200Z,91.98
2023-02-18T19:57:38.069Z,92.09
2023-02-18T20:01:11.491Z,92.12
2023-02-18T20:04:38.887Z,92.39
2023-02-18T20:08:06.478Z,92.51
2023-02-18T20:11:34.684Z,92.24
2023-02-18T20:15:03.156Z,92.26
2023-02-18T20:18:30.638Z,92.55
2023-02-18T20:21:58.604Z,92.54
2023-02-18T20:25:26.843Z,92.69
2023-02-18T20:28:54.737Z,92.57
2023-02-18T20:32:22.358Z,92.47
2023-02-18T20:35:58.789Z,92.87
2023-02-18T20:39:26.169Z,92.58
2023-02-18T20:42:53.381Z,92.81
2023-02-18T20:46:22.171Z,92.53
2023-02-18T20:49:49.298Z,92.97
2023-02-18T20:53:16.538Z,93.29
2023-02-18T20:56:44.495Z,93.96
2023-02-18T21:00:14.330Z,94.01
2023-02-18T21:03:42.319Z,94.17
2023-02-18T21:07:09.448Z,93.64
2023-02-18T21:10:40.637Z,93.88
2023-02-18T21:14:07.956Z,94.07
2023-02-18T21:17:35.182Z,94.17
2023-02-18T21:21:04.552Z,94.36
2023-02-18T21:24:34.502Z,93.97
2023-02-18T21:28:01.766Z,93.78
2023-02-18T21:31:31.250Z,94.20
2023-02-18T21:34:57.133Z,94.22
2023-02-18T21:38:24.340Z,94.81
2023-02-18T21:41:51.473Z,95.48
2023-02-18T21:45:19.744Z,95.61
2023-02-18T21:49:05.554Z,96.29
2023-02-18T21:52:32.838Z,96.44
2023-02-18T21:56:09.345Z,96.41
2023-02-18T21:59:37.495Z,96.27
2023-02-18T22:03:04.869Z,96.48
2023-02-18T22:06:32.149Z,96.34
2023-02-18T22:09:59.533Z,96.03
2023-02-18T22:13:26.786Z,96.02
2023-02-18T22:16:53.957Z,96.38
2023-02-18T22:20:21.200Z,96.43
2023-02-18T22:23:48.415Z,96.39
2023-02-18T22:27:24.376Z,96.45
2023-02-18T22:30:51.474Z,96.33
2023-02-18T22:34:19.308Z,96.56
2023-02-18T22:37:46.478Z,96.13
2023-02-18T22:41:15.697Z,96.15
2023-02-18T22:44:43.069Z,95.99
2023-02-18T22:48:10.428Z,96.09
2023-02-18T22:51:39.554Z,95.97
2023-02-18T22:55:07.746Z,95.81
2023-02-18T22:58:35.411Z,95.55
2023-02-18T23:02:02.592Z,95.53
2023-02-18T23:05:29.759Z,95.61
2023-02-18T23:08:59.003Z,95.25
2023-02-18T23:12:26.483Z,95.27
2023-02-18T23:16:03.992Z,95.01
2023-02-18T23:19:36.158Z,94.94
2023-02-18T23:23:03.194Z,94.89
2023-02-18T23:26:30.456Z,94.69
2023-02-18T23:29:57.881Z,94.62
2023-02-18T23:33:25.181Z,94.57
2023-02-18T23:36:52.412Z,94.39
2023-02-18T23:40:20.206Z,94.27
2023-02-18T23:43:47.826Z,94.21
2023-02-18T23:47:15.013Z,94.17
2023-02-18T23:50:42.345Z,94.30
2023-02-18T23:54:10.014Z,94.22
2023-02-18T23:57:37.430Z,94.18
